Virtual Futura



 METAR AND TAF INFORMATION
METAR FOR ENBO
ADDS - METARS form results

(1046 UTC 18 October 2019)
Data provider http://aviationweather.gov/metar/data/
 
METAR text: ENBO 181020Z 08012KT 9999 FEW008 SCT050 BKN080 04/01 Q1006 NOSIG
Conditions at: ENBO (BODO VI (CIV/MIL, NO) observed 1020 UTC 18 October 2019
Temperature: 4.0°C (39°F)
Dewpoint: 1.0°C (34°F) [RH = 81%]
Pressure (altimeter): 29.70 inches Hg (1006.0 mb)
Winds: from the E (80 degrees) at 14 MPH (12 knots; 6.2 m/s)
Visibility: 6 or more miles (10+ km)
Ceiling: 8000 feet AGL
Clouds: few clouds at 800 feet AGL
scattered clouds at 5000 feet AGL
broken clouds at 8000 feet AGL
Weather: no significant weather observed at this time

METAR text: ENBO 180950Z 08012KT 9999 FEW015 SCT040 BKN080 04/01 Q1006 NOSIG
Conditions at: ENBO (BODO VI (CIV/MIL, NO) observed 0950 UTC 18 October 2019
Temperature: 4.0°C (39°F)
Dewpoint: 1.0°C (34°F) [RH = 81%]
Pressure (altimeter): 29.70 inches Hg (1006.0 mb)
Winds: from the E (80 degrees) at 14 MPH (12 knots; 6.2 m/s)
Visibility: 6 or more miles (10+ km)
Ceiling: 8000 feet AGL
Clouds: few clouds at 1500 feet AGL
scattered clouds at 4000 feet AGL
broken clouds at 8000 feet AGL
Weather: no significant weather observed at this time

Forecast for: ENBO (BODO VI (CIV/MIL, NO)
Text: TAF ENBO 1806/1906 08015KT 9999 -RA FEW020 BKN040
Forecast period: 0600 to 1900 UTC 18 October 2019
Forecast type: FROM: standard forecast or significant change
Winds: from the E (80 degrees) at 17 MPH (15 knots; 7.7 m/s)
Visibility: 6 or more miles 10+ km)
Ceiling: 4000 feet AGL
Clouds: few clouds at 2000 feet AGL
broken clouds at 4000 feet AGL
Weather: -RA  (light rain)
Text: BECMG 1819/1821 04025KT
Forecast period: 1900 UTC 18 October 2019 to 0600 UTC 19 October 2019
Forecast type: BECOMING: Conditions expected to become as follows by 2100 UTC 18 October 2019
Winds: from the NE (40 degrees) at 29 MPH (25 knots; 12.9 m/s)
Visibility: 6 or more miles 10+ km)
Ceiling: 4000 feet AGL
Clouds: few clouds at 2000 feet AGL
broken clouds at 4000 feet AGL
Weather: -RA  (light rain)

 AIRPORT MAP

 RUNWAY INFORMATION
Runway 07 Runway length 11136 ft Runway width 148 ft
Runway elevation 17 ft Runway displaced threshold 1969 ft Runway heading 78
Runway 25 Runway length 11136 ft Runway width 148 ft
Runway elevation 39 ft Runway displaced threshold 0 ft Runway heading 258

 AIRPORT FREQUENCIES
Type A/D Name APP/DEP Frequency 119.7 MHZ
Type ATIS Name ATIS Frequency 123.9 MHZ
Type TWR Name TWR Frequency 118.1 MHZ

 AIRPORT NEAR NAVIGATION AIDS
Type VOR-DME Name Bodo Frequency 117200 KHZ
Type TACAN Name Bodo Frequency 110800 KHZ
Type NDB Name Fleinvaer Frequency 374 KHZ
Type NDB Name Fauske Frequency 326 KHZ
Type NDB Name Stott Frequency 317 KHZ

Poltica de Cookies

Esta web utiliza cookies para obtener datos estadsticos de la navegacin de sus usuarios. Si continas navegando consideramos que aceptas su uso. Ms informacin X Cerrar